sensor_id;sensor_type;location;lat;lon;timestamp;P1;durP1;ratioP1;P2;durP2;ratioP2
18748;SDS011;9503;53.560;10.246;2023-02-20T07:02:30;17.17;;;9.80;;
18748;SDS011;9503;53.560;10.246;2023-02-20T07:04:58;16.00;;;9.40;;
18748;SDS011;9503;53.560;10.246;2023-02-20T07:07:25;26.20;;;10.60;;
18748;SDS011;9503;53.560;10.246;2023-02-20T07:09:51;15.80;;;10.23;;
18748;SDS011;9503;53.560;10.246;2023-02-20T07:12:18;19.77;;;11.73;;
18748;SDS011;9503;53.560;10.246;2023-02-20T07:14:44;20.17;;;11.87;;
18748;SDS011;9503;53.560;10.246;2023-02-20T07:17:11;20.23;;;10.93;;
18748;SDS011;9503;53.560;10.246;2023-02-20T07:19:39;17.60;;;10.80;;
18748;SDS011;9503;53.560;10.246;2023-02-20T07:22:06;19.57;;;13.43;;
18748;SDS011;9503;53.560;10.246;2023-02-20T07:24:33;18.27;;;11.80;;
18748;SDS011;9503;53.560;10.246;2023-02-20T07:27:01;22.30;;;12.97;;
18748;SDS011;9503;53.560;10.246;2023-02-20T07:29:27;20.27;;;12.93;;
18748;SDS011;9503;53.560;10.246;2023-02-20T07:31:54;20.27;;;12.63;;
18748;SDS011;9503;53.560;10.246;2023-02-20T07:34:21;24.63;;;13.33;;
18748;SDS011;9503;53.560;10.246;2023-02-20T07:36:49;20.37;;;13.20;;
18748;SDS011;9503;53.560;10.246;2023-02-20T07:39:15;22.30;;;13.03;;
18748;SDS011;9503;53.560;10.246;2023-02-20T07:41:42;21.20;;;14.30;;
18748;SDS011;9503;53.560;10.246;2023-02-20T07:44:09;23.40;;;14.77;;
18748;SDS011;9503;53.560;10.246;2023-02-20T07:46:37;20.73;;;14.60;;
18748;SDS011;9503;53.560;10.246;2023-02-20T07:49:04;25.60;;;15.10;;
18748;SDS011;9503;53.560;10.246;2023-02-20T07:51:30;24.43;;;14.73;;
18748;SDS011;9503;53.560;10.246;2023-02-20T07:53:59;26.90;;;15.87;;
18748;SDS011;9503;53.560;10.246;2023-02-20T07:56:26;26.13;;;15.47;;
18748;SDS011;9503;53.560;10.246;2023-02-20T07:58:53;24.93;;;14.93;;
18748;SDS011;9503;53.560;10.246;2023-02-20T08:01:19;24.87;;;17.07;;
18748;SDS011;9503;53.560;10.246;2023-02-20T08:03:46;23.07;;;15.67;;
18748;SDS011;9503;53.560;10.246;2023-02-20T08:06:15;27.20;;;16.57;;
18748;SDS011;9503;53.560;10.246;2023-02-20T08:08:45;31.40;;;16.83;;
18748;SDS011;9503;53.560;10.246;2023-02-20T08:11:14;27.83;;;16.97;;
18748;SDS011;9503;53.560;10.246;2023-02-20T08:13:41;25.30;;;15.30;;
18748;SDS011;9503;53.560;10.246;2023-02-20T08:16:08;28.33;;;18.43;;
18748;SDS011;9503;53.560;10.246;2023-02-20T08:18:34;27.97;;;17.87;;
18748;SDS011;9503;53.560;10.246;2023-02-20T08:21:01;30.13;;;17.53;;
18748;SDS011;9503;53.560;10.246;2023-02-20T08:23:28;34.80;;;19.03;;
18748;SDS011;9503;53.560;10.246;2023-02-20T08:25:55;30.03;;;17.43;;
18748;SDS011;9503;53.560;10.246;2023-02-20T08:28:23;30.00;;;17.60;;
18748;SDS011;9503;53.560;10.246;2023-02-20T08:30:50;28.77;;;16.60;;
18748;SDS011;9503;53.560;10.246;2023-02-20T08:33:17;28.47;;;17.90;;
18748;SDS011;9503;53.560;10.246;2023-02-20T08:35:43;30.50;;;19.40;;
18748;SDS011;9503;53.560;10.246;2023-02-20T08:38:21;29.47;;;19.33;;
18748;SDS011;9503;53.560;10.246;2023-02-20T08:40:50;34.13;;;20.07;;
18748;SDS011;9503;53.560;10.246;2023-02-20T08:43:17;32.07;;;19.83;;
18748;SDS011;9503;53.560;10.246;2023-02-20T08:45:45;33.83;;;19.00;;
18748;SDS011;9503;53.560;10.246;2023-02-20T08:48:12;35.50;;;20.97;;
18748;SDS011;9503;53.560;10.246;2023-02-20T08:50:39;32.63;;;19.73;;
18748;SDS011;9503;53.560;10.246;2023-02-20T08:53:05;37.97;;;17.77;;
18748;SDS011;9503;53.560;10.246;2023-02-20T08:55:32;35.83;;;18.90;;
18748;SDS011;9503;53.560;10.246;2023-02-20T08:57:59;39.00;;;20.53;;
18748;SDS011;9503;53.560;10.246;2023-02-20T09:00:25;30.60;;;18.90;;
18748;SDS011;9503;53.560;10.246;2023-02-20T09:02:53;29.43;;;18.07;;
18748;SDS011;9503;53.560;10.246;2023-02-20T09:05:20;31.00;;;18.40;;
18748;SDS011;9503;53.560;10.246;2023-02-20T09:07:48;32.10;;;20.87;;
18748;SDS011;9503;53.560;10.246;2023-02-20T09:10:15;35.33;;;20.93;;
18748;SDS011;9503;53.560;10.246;2023-02-20T09:12:42;42.50;;;21.00;;
18748;SDS011;9503;53.560;10.246;2023-02-20T09:15:09;34.53;;;19.87;;
18748;SDS011;9503;53.560;10.246;2023-02-20T09:17:36;35.50;;;20.50;;
18748;SDS011;9503;53.560;10.246;2023-02-20T09:20:04;40.90;;;19.07;;
18748;SDS011;9503;53.560;10.246;2023-02-20T09:22:33;34.67;;;20.27;;
18748;SDS011;9503;53.560;10.246;2023-02-20T09:25:00;29.97;;;18.03;;
18748;SDS011;9503;53.560;10.246;2023-02-20T09:27:29;34.03;;;20.77;;
18748;SDS011;9503;53.560;10.246;2023-02-20T09:29:56;35.93;;;20.77;;
18748;SDS011;9503;53.560;10.246;2023-02-20T09:32:23;39.63;;;20.37;;
18748;SDS011;9503;53.560;10.246;2023-02-20T09:34:50;38.20;;;19.67;;
18748;SDS011;9503;53.560;10.246;2023-02-20T09:37:30;40.57;;;21.30;;
18748;SDS011;9503;53.560;10.246;2023-02-20T09:40:02;33.73;;;18.73;;
18748;SDS011;9503;53.560;10.246;2023-02-20T09:42:35;35.50;;;19.83;;
18748;SDS011;9503;53.560;10.246;2023-02-20T09:45:09;32.70;;;20.67;;
18748;SDS011;9503;53.560;10.246;2023-02-20T09:47:47;35.13;;;21.20;;
18748;SDS011;9503;53.560;10.246;2023-02-20T09:50:35;33.87;;;19.60;;
18748;SDS011;9503;53.560;10.246;2023-02-20T09:53:14;34.20;;;20.07;;
18748;SDS011;9503;53.560;10.246;2023-02-20T09:55:52;36.47;;;19.17;;
18748;SDS011;9503;53.560;10.246;2023-02-20T09:58:25;36.20;;;21.67;;
18748;SDS011;9503;53.560;10.246;2023-02-20T10:00:55;37.43;;;21.37;;
18748;SDS011;9503;53.560;10.246;2023-02-20T10:03:27;35.97;;;20.97;;
18748;SDS011;9503;53.560;10.246;2023-02-20T10:06:02;44.07;;;20.53;;
18748;SDS011;9503;53.560;10.246;2023-02-20T10:08:40;36.07;;;20.73;;
18748;SDS011;9503;53.560;10.246;2023-02-20T10:11:15;40.07;;;22.20;;
18748;SDS011;9503;53.560;10.246;2023-02-20T10:13:59;42.37;;;21.00;;
18748;SDS011;9503;53.560;10.246;2023-02-20T10:16:41;40.33;;;21.20;;
18748;SDS011;9503;53.560;10.246;2023-02-20T10:19:16;40.80;;;20.43;;
18748;SDS011;9503;53.560;10.246;2023-02-20T10:21:51;37.17;;;20.80;;
18748;SDS011;9503;53.560;10.246;2023-02-20T10:24:33;36.50;;;21.03;;
18748;SDS011;9503;53.560;10.246;2023-02-20T10:27:16;35.47;;;19.90;;
18748;SDS011;9503;53.560;10.246;2023-02-20T10:29:50;35.97;;;19.87;;
18748;SDS011;9503;53.560;10.246;2023-02-20T10:32:19;36.40;;;18.93;;
18748;SDS011;9503;53.560;10.246;2023-02-20T10:34:54;33.30;;;19.33;;
18748;SDS011;9503;53.560;10.246;2023-02-20T10:37:26;34.97;;;16.70;;
18748;SDS011;9503;53.560;10.246;2023-02-20T10:40:01;36.47;;;18.53;;
18748;SDS011;9503;53.560;10.246;2023-02-20T10:42:35;31.77;;;16.87;;
18748;SDS011;9503;53.560;10.246;2023-02-20T10:45:06;27.47;;;15.87;;
18748;SDS011;9503;53.560;10.246;2023-02-20T10:47:43;32.27;;;15.60;;
18748;SDS011;9503;53.560;10.246;2023-02-20T10:50:16;23.63;;;13.87;;
18748;SDS011;9503;53.560;10.246;2023-02-20T10:52:48;28.67;;;14.10;;
18748;SDS011;9503;53.560;10.246;2023-02-20T10:55:22;21.27;;;12.90;;
18748;SDS011;9503;53.560;10.246;2023-02-20T10:57:54;23.37;;;11.37;;
18748;SDS011;9503;53.560;10.246;2023-02-20T11:00:29;27.20;;;11.23;;
18748;SDS011;9503;53.560;10.246;2023-02-20T11:03:05;15.03;;;9.33;;
18748;SDS011;9503;53.560;10.246;2023-02-20T11:05:36;14.77;;;9.70;;
18748;SDS011;9503;53.560;10.246;2023-02-20T11:08:06;20.97;;;9.23;;
18748;SDS011;9503;53.560;10.246;2023-02-20T11:10:35;18.93;;;8.67;;
18748;SDS011;9503;53.560;10.246;2023-02-20T11:13:03;14.40;;;9.00;;
18748;SDS011;9503;53.560;10.246;2023-02-20T11:15:33;19.07;;;8.67;;
18748;SDS011;9503;53.560;10.246;2023-02-20T11:18:06;14.73;;;7.93;;
18748;SDS011;9503;53.560;10.246;2023-02-20T11:20:45;16.60;;;8.13;;
18748;SDS011;9503;53.560;10.246;2023-02-20T11:26:28;14.33;;;7.67;;
18748;SDS011;9503;53.560;10.246;2023-02-20T11:28:59;15.27;;;7.80;;
18748;SDS011;9503;53.560;10.246;2023-02-20T11:31:30;16.07;;;8.00;;
18748;SDS011;9503;53.560;10.246;2023-02-20T11:33:59;14.60;;;7.27;;
18748;SDS011;9503;53.560;10.246;2023-02-20T11:36:28;14.93;;;7.10;;
18748;SDS011;9503;53.560;10.246;2023-02-20T11:39:00;15.13;;;7.47;;
18748;SDS011;9503;53.560;10.246;2023-02-20T11:41:32;11.77;;;6.27;;
18748;SDS011;9503;53.560;10.246;2023-02-20T11:44:06;9.97;;;6.20;;
18748;SDS011;9503;53.560;10.246;2023-02-20T11:46:43;10.77;;;6.17;;
18748;SDS011;9503;53.560;10.246;2023-02-20T11:49:23;10.03;;;6.03;;
18748;SDS011;9503;53.560;10.246;2023-02-20T11:51:51;12.40;;;6.13;;
18748;SDS011;9503;53.560;10.246;2023-02-20T11:54:19;12.43;;;5.67;;
18748;SDS011;9503;53.560;10.246;2023-02-20T11:56:56;11.43;;;5.40;;
18748;SDS011;9503;53.560;10.246;2023-02-20T11:59:27;9.47;;;5.80;;
18748;SDS011;9503;53.560;10.246;2023-02-20T12:02:09;9.73;;;4.93;;
18748;SDS011;9503;53.560;10.246;2023-02-20T12:05:02;9.33;;;5.07;;
18748;SDS011;9503;53.560;10.246;2023-02-20T12:07:32;10.50;;;4.77;;
18748;SDS011;9503;53.560;10.246;2023-02-20T12:10:02;9.30;;;4.90;;
18748;SDS011;9503;53.560;10.246;2023-02-20T12:12:44;10.00;;;4.37;;
18748;SDS011;9503;53.560;10.246;2023-02-20T12:15:12;10.10;;;4.97;;
18748;SDS011;9503;53.560;10.246;2023-02-20T12:21:01;8.77;;;4.03;;
18748;SDS011;9503;53.560;10.246;2023-02-20T12:23:38;9.47;;;4.40;;
18748;SDS011;9503;53.560;10.246;2023-02-20T12:26:17;8.23;;;3.97;;
18748;SDS011;9503;53.560;10.246;2023-02-20T12:28:55;8.17;;;4.30;;
18748;SDS011;9503;53.560;10.246;2023-02-20T12:31:39;7.73;;;4.07;;
18748;SDS011;9503;53.560;10.246;2023-02-20T12:34:25;7.97;;;4.30;;
18748;SDS011;9503;53.560;10.246;2023-02-20T12:37:17;10.27;;;4.47;;
18748;SDS011;9503;53.560;10.246;2023-02-20T12:39:53;9.43;;;3.23;;
18748;SDS011;9503;53.560;10.246;2023-02-20T12:42:37;9.43;;;4.03;;
18748;SDS011;9503;53.560;10.246;2023-02-20T12:45:17;6.83;;;3.67;;
18748;SDS011;9503;53.560;10.246;2023-02-20T12:47:55;9.40;;;3.70;;
18748;SDS011;9503;53.560;10.246;2023-02-20T12:50:39;12.63;;;4.13;;
18748;SDS011;9503;53.560;10.246;2023-02-20T12:56:12;7.87;;;3.73;;
18748;SDS011;9503;53.560;10.246;2023-02-20T12:58:51;7.73;;;3.90;;
18748;SDS011;9503;53.560;10.246;2023-02-20T13:01:26;7.03;;;3.50;;
18748;SDS011;9503;53.560;10.246;2023-02-20T13:03:58;9.00;;;4.43;;
18748;SDS011;9503;53.560;10.246;2023-02-20T13:06:37;8.47;;;3.60;;
18748;SDS011;9503;53.560;10.246;2023-02-20T13:09:15;7.50;;;3.13;;
18748;SDS011;9503;53.560;10.246;2023-02-20T13:11:47;5.07;;;3.03;;
18748;SDS011;9503;53.560;10.246;2023-02-20T13:17:10;10.33;;;3.90;;
18748;SDS011;9503;53.560;10.246;2023-02-20T13:19:48;10.70;;;4.00;;
18748;SDS011;9503;53.560;10.246;2023-02-20T13:22:21;5.83;;;3.37;;
18748;SDS011;9503;53.560;10.246;2023-02-20T13:24:48;12.63;;;4.30;;
18748;SDS011;9503;53.560;10.246;2023-02-20T13:27:26;13.37;;;4.23;;
18748;SDS011;9503;53.560;10.246;2023-02-20T13:29:55;9.30;;;4.07;;
18748;SDS011;9503;53.560;10.246;2023-02-20T13:32:25;8.03;;;3.53;;
18748;SDS011;9503;53.560;10.246;2023-02-20T13:34:55;9.73;;;4.13;;
18748;SDS011;9503;53.560;10.246;2023-02-20T13:38:10;10.70;;;3.70;;
18748;SDS011;9503;53.560;10.246;2023-02-20T13:40:41;9.70;;;3.73;;
18748;SDS011;9503;53.560;10.246;2023-02-20T13:46:16;7.63;;;3.63;;
18748;SDS011;9503;53.560;10.246;2023-02-20T13:48:51;8.87;;;3.87;;
18748;SDS011;9503;53.560;10.246;2023-02-20T13:51:31;9.83;;;4.03;;
18748;SDS011;9503;53.560;10.246;2023-02-20T13:54:10;10.13;;;4.43;;
18748;SDS011;9503;53.560;10.246;2023-02-20T13:56:45;13.37;;;4.27;;
18748;SDS011;9503;53.560;10.246;2023-02-20T13:59:15;5.63;;;3.40;;
18748;SDS011;9503;53.560;10.246;2023-02-20T14:01:54;14.90;;;4.20;;
18748;SDS011;9503;53.560;10.246;2023-02-20T14:04:51;7.63;;;3.77;;
18748;SDS011;9503;53.560;10.246;2023-02-20T14:07:26;9.17;;;3.97;;
18748;SDS011;9503;53.560;10.246;2023-02-20T14:10:01;12.53;;;4.80;;
18748;SDS011;9503;53.560;10.246;2023-02-20T14:12:31;9.83;;;4.53;;
18748;SDS011;9503;53.560;10.246;2023-02-20T14:15:01;11.97;;;4.30;;
18748;SDS011;9503;53.560;10.246;2023-02-20T14:17:29;7.33;;;3.63;;
18748;SDS011;9503;53.560;10.246;2023-02-20T14:19:59;9.50;;;3.87;;
18748;SDS011;9503;53.560;10.246;2023-02-20T14:22:28;10.83;;;4.00;;
18748;SDS011;9503;53.560;10.246;2023-02-20T14:28:09;9.03;;;4.43;;
18748;SDS011;9503;53.560;10.246;2023-02-20T14:30:38;10.10;;;3.77;;
18748;SDS011;9503;53.560;10.246;2023-02-20T14:33:14;11.13;;;4.77;;
18748;SDS011;9503;53.560;10.246;2023-02-20T14:35:50;12.07;;;4.67;;
18748;SDS011;9503;53.560;10.246;2023-02-20T14:38:28;7.93;;;4.10;;
18748;SDS011;9503;53.560;10.246;2023-02-20T14:41:11;10.30;;;4.43;;
18748;SDS011;9503;53.560;10.246;2023-02-20T14:43:52;11.07;;;4.60;;
18748;SDS011;9503;53.560;10.246;2023-02-20T14:46:21;8.43;;;4.10;;
18748;SDS011;9503;53.560;10.246;2023-02-20T14:49:03;8.67;;;4.30;;
18748;SDS011;9503;53.560;10.246;2023-02-20T14:51:37;9.37;;;5.30;;
18748;SDS011;9503;53.560;10.246;2023-02-20T14:54:14;12.87;;;4.77;;
18748;SDS011;9503;53.560;10.246;2023-02-20T14:56:46;11.60;;;4.73;;
18748;SDS011;9503;53.560;10.246;2023-02-20T14:59:23;10.50;;;4.20;;
18748;SDS011;9503;53.560;10.246;2023-02-20T15:02:11;11.73;;;5.20;;
18748;SDS011;9503;53.560;10.246;2023-02-20T15:04:45;9.97;;;4.50;;
18748;SDS011;9503;53.560;10.246;2023-02-20T15:07:14;8.30;;;4.30;;
18748;SDS011;9503;53.560;10.246;2023-02-20T15:09:43;7.93;;;4.30;;
18748;SDS011;9503;53.560;10.246;2023-02-20T15:12:18;10.67;;;4.40;;
18748;SDS011;9503;53.560;10.246;2023-02-20T15:14:51;14.03;;;4.50;;
18748;SDS011;9503;53.560;10.246;2023-02-20T15:17:21;11.73;;;4.27;;
18748;SDS011;9503;53.560;10.246;2023-02-20T15:19:49;8.17;;;4.60;;
18748;SDS011;9503;53.560;10.246;2023-02-20T15:22:25;11.77;;;5.00;;
18748;SDS011;9503;53.560;10.246;2023-02-20T15:24:54;11.17;;;4.67;;
18748;SDS011;9503;53.560;10.246;2023-02-20T15:27:37;9.70;;;4.23;;
18748;SDS011;9503;53.560;10.246;2023-02-20T15:30:08;12.23;;;4.23;;
18748;SDS011;9503;53.560;10.246;2023-02-20T15:32:37;8.63;;;4.60;;
18748;SDS011;9503;53.560;10.246;2023-02-20T15:35:11;8.20;;;4.07;;
18748;SDS011;9503;53.560;10.246;2023-02-20T15:37:41;14.73;;;4.43;;
18748;SDS011;9503;53.560;10.246;2023-02-20T15:40:08;11.30;;;4.37;;
18748;SDS011;9503;53.560;10.246;2023-02-20T15:42:43;10.20;;;4.00;;
18748;SDS011;9503;53.560;10.246;2023-02-20T15:45:11;8.90;;;4.30;;
18748;SDS011;9503;53.560;10.246;2023-02-20T15:47:38;8.70;;;4.27;;
18748;SDS011;9503;53.560;10.246;2023-02-20T15:50:04;11.30;;;4.53;;
18748;SDS011;9503;53.560;10.246;2023-02-20T15:52:31;9.43;;;4.43;;
18748;SDS011;9503;53.560;10.246;2023-02-20T15:55:00;8.60;;;4.50;;
18748;SDS011;9503;53.560;10.246;2023-02-20T15:57:27;9.03;;;4.60;;
18748;SDS011;9503;53.560;10.246;2023-02-20T15:59:53;13.07;;;4.47;;
18748;SDS011;9503;53.560;10.246;2023-02-20T16:02:20;10.07;;;4.63;;
18748;SDS011;9503;53.560;10.246;2023-02-20T16:04:48;11.13;;;5.07;;
18748;SDS011;9503;53.560;10.246;2023-02-20T16:07:17;9.43;;;3.87;;
18748;SDS011;9503;53.560;10.246;2023-02-20T16:09:45;11.13;;;4.03;;
18748;SDS011;9503;53.560;10.246;2023-02-20T16:12:13;7.53;;;4.00;;
18748;SDS011;9503;53.560;10.246;2023-02-20T16:14:43;7.40;;;3.87;;
18748;SDS011;9503;53.560;10.246;2023-02-20T16:17:12;9.30;;;4.53;;
18748;SDS011;9503;53.560;10.246;2023-02-20T16:19:45;7.00;;;4.50;;
18748;SDS011;9503;53.560;10.246;2023-02-20T16:22:11;6.07;;;4.43;;
18748;SDS011;9503;53.560;10.246;2023-02-20T16:24:38;9.47;;;5.03;;
18748;SDS011;9503;53.560;10.246;2023-02-20T16:27:08;8.73;;;4.83;;
18748;SDS011;9503;53.560;10.246;2023-02-20T16:29:41;10.73;;;5.20;;
18748;SDS011;9503;53.560;10.246;2023-02-20T16:32:12;10.47;;;6.47;;
18748;SDS011;9503;53.560;10.246;2023-02-20T16:34:41;11.13;;;6.27;;
18748;SDS011;9503;53.560;10.246;2023-02-20T16:37:08;9.00;;;5.67;;
18748;SDS011;9503;53.560;10.246;2023-02-20T16:39:36;9.67;;;5.10;;
18748;SDS011;9503;53.560;10.246;2023-02-20T16:42:09;6.90;;;5.03;;
18748;SDS011;9503;53.560;10.246;2023-02-20T16:44:45;8.83;;;4.77;;
18748;SDS011;9503;53.560;10.246;2023-02-20T16:47:14;8.93;;;5.50;;
18748;SDS011;9503;53.560;10.246;2023-02-20T16:49:41;8.33;;;5.23;;
18748;SDS011;9503;53.560;10.246;2023-02-20T16:52:10;10.17;;;5.40;;
18748;SDS011;9503;53.560;10.246;2023-02-20T16:54:42;9.97;;;5.37;;
18748;SDS011;9503;53.560;10.246;2023-02-20T16:57:09;6.93;;;4.87;;
18748;SDS011;9503;53.560;10.246;2023-02-20T16:59:35;6.87;;;4.80;;
18748;SDS011;9503;53.560;10.246;2023-02-20T17:02:03;8.47;;;4.83;;
18748;SDS011;9503;53.560;10.246;2023-02-20T17:04:30;6.50;;;4.77;;
18748;SDS011;9503;53.560;10.246;2023-02-20T17:06:57;6.43;;;4.40;;
18748;SDS011;9503;53.560;10.246;2023-02-20T17:09:23;7.30;;;4.70;;
18748;SDS011;9503;53.560;10.246;2023-02-20T17:11:50;6.10;;;5.10;;
18748;SDS011;9503;53.560;10.246;2023-02-20T17:14:16;7.43;;;5.20;;
18748;SDS011;9503;53.560;10.246;2023-02-20T17:16:46;6.37;;;4.10;;
18748;SDS011;9503;53.560;10.246;2023-02-20T17:19:15;10.83;;;5.13;;
18748;SDS011;9503;53.560;10.246;2023-02-20T17:21:45;9.27;;;4.57;;
18748;SDS011;9503;53.560;10.246;2023-02-20T17:24:12;4.23;;;3.27;;
18748;SDS011;9503;53.560;10.246;2023-02-20T17:26:39;5.90;;;3.73;;
18748;SDS011;9503;53.560;10.246;2023-02-20T17:29:05;4.93;;;3.03;;
18748;SDS011;9503;53.560;10.246;2023-02-20T17:31:32;3.93;;;2.53;;
18748;SDS011;9503;53.560;10.246;2023-02-20T17:33:58;4.27;;;2.57;;
18748;SDS011;9503;53.560;10.246;2023-02-20T17:36:26;3.47;;;2.30;;
18748;SDS011;9503;53.560;10.246;2023-02-20T17:38:53;5.33;;;3.00;;
18748;SDS011;9503;53.560;10.246;2023-02-20T17:41:20;3.20;;;2.37;;
18748;SDS011;9503;53.560;10.246;2023-02-20T17:43:48;3.73;;;2.20;;
18748;SDS011;9503;53.560;10.246;2023-02-20T17:46:15;3.63;;;2.37;;
18748;SDS011;9503;53.560;10.246;2023-02-20T17:48:41;5.33;;;2.47;;
18748;SDS011;9503;53.560;10.246;2023-02-20T17:51:08;2.67;;;2.30;;
18748;SDS011;9503;53.560;10.246;2023-02-20T17:53:36;3.10;;;2.13;;
18748;SDS011;9503;53.560;10.246;2023-02-20T17:56:03;3.33;;;2.17;;
18748;SDS011;9503;53.560;10.246;2023-02-20T17:58:30;2.90;;;1.90;;
